Hickory Regional Airport
KHKY : now visible

Airfield :











YOU CAN JOIN US ON...

 
LOGIN :

Register | Disclaimer

   EN    FR    IT 

 









Legend :    VFR   Marginal VFR   IFR   Intensive IFR   Very Intensive IFR
Visi :
Ceiling :
>= 8 km
>= 3000ft
5 to 8 km
1000 to 3000 ft
1500m to 5 km
500 to 1000 ft
800 to 1500m
200 to 500 ft
< 800m
< 200 ft
Symbols :   Thunderstorms  Fog  Heavy snow  Heavy precipitations  Wind > 20 kt






- Airport Elevation : 1190 ft
- IATA code : HKY


KHKY - Hickory Regional

CURRENT METAR :
  • 072053Z 19005KT 10SM SCT110 25/12 A2989 RMK AO2 SLP103 T02500117 56034

EXPIRED METARs :
  • 071953Z 27008KT 10SM BKN100 25/12 A2991 RMK AO2 SLP112 T02500117
  • 071853Z 25006KT 10SM FEW120 23/13 A2995 RMK AO2 SLP123 T02280128

TAF KHKY
Valid from the 07 at 18:00 until the 08 at 18:00 UTC


071732Z 0718/0818 23011KT P6SM VCSH BKN060
FM080000 23007KT P6SM FEW060 BKN250
FM080600 27005KT P6SM FEW060 BKN250
FM081600 27008KT P6SM SCT060 BKN250



MET'MAP, your aeronautical weather chart ! - Copyright ORBIFLY December 2007 - Disclaimer

ORBIFLY MET'MAP TEAM :

Programming & Development : Alexandra Zaïnal
Concept & original design : Baudouin d'Aumeries
Assistance for programming : Marc-Olivier Méhu
Technical & hardware support : Manuel Goepfert

Contact : metmap@orbifly.com




SOURCES & CREDITS :

   NOAA       Earth
Advisory